E/V Nautilus — J8B3605 — position and weather

sailwx.info

Track history (hours):
 
Tides and Currents Weather Stations Pressure Air Temp Water Temp Dewpoint Dewpoint Depression Visibility Wind Speed Wind Dir Waves Ship Positions

Oceanographic research ship E/V Nautilus (St Vincent and the Grenadines)

Ship's website: http://www.nautiluslive.org

Last reported at 2019-Jun-18 23:00 UTC. Time now 2019-Jun-19 14:46 UTC.
Position N 27°24' W 144°00'.

Length 64 m; draft 5 m.

Type: Other ship. MMSI: 376404000.

Wind from 060 at 15 knots

Barometer 1024.0 mb
Air temperature 28.0 ° C
Visibility: greater than 10.8 NM
Water temperature 22.0 ° C

Date/timePositionNaut miles runAvg speedWind from/ knotsBaromVisibWave heightAir tempDewpointWater temp
2019-Jun-18 23:00N 27°24' W 144°00'29711.9 060 / 151024.010.8 28.0 22.0
2019-Jun-17 22:00N 30°00' W 139°12'136 2.8 060 / 171026.0 5.4 24.0 20.0
2019-Jun-15 22:00N 30°42' W 136°42'32 1.3 280 / 71024.0 24.0 19.0
2019-Jun-14 22:00N 31°12' W 136°30'20112.5 300 / 71022.0 -5.6 19.0
2019-Jun-14 06:00N 32°54' W 133°06'59 7.3 270 / 61020.0 5.4 16.0 18.0
2019-Jun-13 22:00N 33°24' W 132°06'20612.9 330 / 81021.0 5.4 22.0 17.0
2019-Jun-13 06:00N 35°06' W 128°30'28 9.9 310 / 151017.9 5.4 14.0 14.0
2019-Jun-13 03:11N 35°22' W 128°02'512.3
2019-Jun-13 02:47N 35°24' W 127°57'1912.2
2019-Jun-13 01:15N 35°34' W 127°37'312.2
2019-Jun-13 01:00N 35°35' W 127°34'1012.2
2019-Jun-13 00:09N 35°41' W 127°23'912.3
2019-Jun-12 23:25N 35°45' W 127°13'912.3
2019-Jun-12 22:41N 35°50' W 127°04'711.5
2019-Jun-12 22:05N 35°53' W 126°56'212.2
2019-Jun-12 21:55N 35°54' W 126°54'512.1
2019-Jun-12 21:30N 35°56' W 126°48'612.5
2019-Jun-12 21:00N 36°00' W 126°42'211.0 290 / 201017.9 5.4 18.0 16.0
2019-Jun-12 20:49N 36°00' W 126°40'411.9
2019-Jun-12 20:30N 36°02' W 126°36'611.9
2019-Jun-12 20:00N 36°05' W 126°29'7311.8
2019-Jun-12 13:49N 36°42' W 125°11'1311.7
2019-Jun-12 12:44N 36°46' W 124°56'311.9
2019-Jun-12 12:29N 36°47' W 124°52'612.0
2019-Jun-12 11:58N 36°48' W 124°45'612.0
2019-Jun-12 11:30N 36°49' W 124°38'611.8
2019-Jun-12 11:00N 36°52' W 124°31'612.0
2019-Jun-12 10:30N 36°55' W 124°25'612.3
2019-Jun-12 10:00N 36°58' W 124°18'612.5
2019-Jun-12 09:30N 37°01' W 124°12'612.8
2019-Jun-12 09:00N 37°05' W 124°05'612.5
2019-Jun-12 08:30N 37°08' W 123°58'612.5
2019-Jun-12 08:00N 37°11' W 123°51'612.8
2019-Jun-12 07:30N 37°14' W 123°45'612.1
2019-Jun-12 07:00N 37°17' W 123°38'612.0
2019-Jun-12 06:30N 37°21' W 123°32'611.8
2019-Jun-12 06:01N 37°24' W 123°25'612.0
2019-Jun-12 05:30N 37°27' W 123°19'611.7
2019-Jun-12 05:01N 37°30' W 123°12'026.7
2019-Jun-12 05:00N 37°30' W 123°12'510.9 300 / 151013.910.8 15.0 14.0
2019-Jun-12 04:31N 37°33' W 123°06'611.6
2019-Jun-12 04:01N 37°36' W 123°00'611.6
2019-Jun-12 03:31N 37°39' W 122°54'611.4
2019-Jun-12 03:01N 37°43' W 122°48'611.6
2019-Jun-12 02:31N 37°45' W 122°42'1110.5
2019-Jun-12 01:31N 37°49' W 122°29'4 8.8
2019-Jun-12 01:00N 37°51' W 122°25'4 6.8
2019-Jun-12 00:29N 37°54' W 122°26'0 0.0
2019-Jun-11 23:59N 37°54' W 122°26'0 0.1
2019-Jun-11 23:26N 37°54' W 122°26'0 0.1
2019-Jun-11 22:59N 37°54' W 122°26'0 0.0
2019-Jun-11 22:29N 37°54' W 122°26'0 0.4
2019-Jun-11 21:59N 37°55' W 122°26'0 0.4
2019-Jun-11 21:26N 37°55' W 122°26'1 1.4
2019-Jun-11 20:56N 37°54' W 122°26'1 1.3
2019-Jun-11 20:29N 37°54' W 122°26'1 1.3
2019-Jun-11 19:59N 37°54' W 122°26'0 0.3
2019-Jun-11 19:29N 37°54' W 122°26'1 1.6
2019-Jun-11 18:59N 37°54' W 122°26'1 1.0
2019-Jun-11 18:26N 37°54' W 122°26'0 0.4
2019-Jun-11 17:53N 37°54' W 122°26'2 4.4
2019-Jun-11 17:30N 37°56' W 122°27'612.4
2019-Jun-11 17:00N 38°01' W 122°23'611.9
2019-Jun-11 16:30N 38°04' W 122°16'2 3.9
2019-Jun-11 15:58N 38°06' W 122°16'0 0.0
2019-Jun-11 15:28N 38°06' W 122°16'0 0.0
2019-Jun-11 14:58N 38°06' W 122°16'0 0.0
2019-Jun-11 14:22N 38°06' W 122°16'0 0.0
2019-Jun-11 13:58N 38°06' W 122°16'0 0.0
2019-Jun-11 13:28N 38°06' W 122°16'0 0.0
2019-Jun-11 12:46N 38°06' W 122°16'0 0.0
2019-Jun-11 12:22N 38°06' W 122°16'0 0.0
2019-Jun-11 11:52N 38°06' W 122°16'0 0.0
2019-Jun-11 11:28N 38°06' W 122°16'0 0.0
2019-Jun-11 10:57N 38°06' W 122°16'0 0.0
2019-Jun-11 10:27N 38°06' W 122°16'0 0.0
2019-Jun-11 09:57N 38°06' W 122°16'0 0.0
2019-Jun-11 09:27N 38°06' W 122°16'0 0.0
2019-Jun-11 08:51N 38°06' W 122°16'0 0.0
2019-Jun-11 07:45N 38°06' W 122°16'0 0.0
2019-Jun-11 07:27N 38°06' W 122°16'0 0.0
2019-Jun-11 06:39N 38°06' W 122°16'0 0.0
2019-Jun-11 06:21N 38°06' W 122°16'0 0.0
2019-Jun-11 05:51N 38°06' W 122°16'0 0.0
2019-Jun-11 05:27N 38°06' W 122°16'0 0.0
2019-Jun-11 04:27N 38°06' W 122°16'0 0.0
2019-Jun-11 03:57N 38°06' W 122°16'0 0.0
2019-Jun-11 03:21N 38°06' W 122°16'0 0.0
2019-Jun-11 02:57N 38°06' W 122°16'0 0.0
2019-Jun-11 02:27N 38°06' W 122°16'0 0.0
2019-Jun-10 16:03N 38°06' W 122°16'0 0.0
2019-Jun-10 15:09N 38°06' W 122°16'0 0.0
2019-Jun-10 14:33N 38°06' W 122°16'0 0.0
2019-Jun-10 14:15N 38°06' W 122°16'0 0.0
2019-Jun-10 13:57N 38°06' W 122°16'0 0.0
2019-Jun-10 13:21N 38°06' W 122°16'0 0.0
2019-Jun-10 12:45N 38°06' W 122°16'0 0.0
2019-Jun-10 12:21N 38°06' W 122°16'0 0.0
2019-Jun-10 11:57N 38°06' W 122°16'0 0.0
2019-Jun-10 11:27N 38°06' W 122°16'0 0.0
2019-Jun-10 10:57N 38°06' W 122°16'0 0.0
2019-Jun-10 10:21N 38°06' W 122°16'0 0.0
2019-Jun-10 09:57N 38°06' W 122°16'0 0.0
2019-Jun-10 09:27N 38°06' W 122°16'0 0.0
2019-Jun-10 08:21N 38°06' W 122°16'0 0.0
2019-Jun-10 07:57N 38°06' W 122°16'0 0.0
2019-Jun-10 04:51N 38°06' W 122°16'0 0.0
2019-Jun-09 19:07N 38°06' W 122°16'0 2.3
2019-Jun-09 18:59N 38°06' W 122°16'2 4.4
2019-Jun-09 18:30N 38°04' W 122°16'4 8.6
2019-Jun-09 18:00N 38°02' W 122°21'5 9.0
2019-Jun-09 17:30N 37°59' W 122°26'4 8.5
2019-Jun-09 17:00N 37°55' W 122°27'5 9.1
2019-Jun-09 16:30N 37°51' W 122°24'4 7.8
2019-Jun-09 16:00N 37°49' W 122°29'4 8.5
2019-Jun-09 15:30N 37°47' W 122°34'510.6
2019-Jun-09 15:00N 37°46' W 122°40'510.2
2019-Jun-09 14:30N 37°46' W 122°47'5 9.9
2019-Jun-09 14:00N 37°49' W 122°52'611.4
2019-Jun-09 13:30N 37°51' W 122°58'611.5
2019-Jun-09 13:00N 37°54' W 123°05'510.6
2019-Jun-09 12:30N 37°57' W 123°11'3 5.4
2019-Jun-09 12:00N 37°59' W 123°13'2 4.4
2019-Jun-09 11:30N 38°01' W 123°15'2 4.3
2019-Jun-09 11:00N 38°02' W 123°17'2 4.5
2019-Jun-09 10:30N 38°04' W 123°18'2 3.9
2019-Jun-09 10:00N 38°06' W 123°20'2 3.8
2019-Jun-09 09:30N 38°07' W 123°21'2 4.1
2019-Jun-09 09:00N 38°09' W 123°23'2 4.3
2019-Jun-09 08:30N 38°10' W 123°25'2 4.6
2019-Jun-09 08:00N 38°12' W 123°26'2 4.3
2019-Jun-09 07:30N 38°14' W 123°28'3 6.8
2019-Jun-09 07:00N 38°17' W 123°30'4 8.7
2019-Jun-09 06:30N 38°21' W 123°32'4 8.9
2019-Jun-09 06:00N 38°25' W 123°35'5 9.6
2019-Jun-09 05:30N 38°29' W 123°39'5 9.9
2019-Jun-09 05:00N 38°33' W 123°42'1110.7
2019-Jun-09 04:00N 38°41' W 123°51'612.3
2019-Jun-09 03:30N 38°46' W 123°55'8212.6
2019-Jun-08 21:00N 40°00' W 124°42'191 6.8 360 / 271023.0 5.4 14.0 12.0
2019-Jun-07 17:00N 42°48' W 126°42'0 0.0 330 / 201026.010.8 13.0 12.0
2019-Jun-06 21:00N 42°48' W 126°42'   300 / 201022.0 5.4 16.0 13.0
Track history (hours):
 
Tides and Currents Weather Stations Pressure Air Temp Water Temp Dewpoint Dewpoint Depression Visibility Wind Speed Wind Dir Waves Ship Positions

Oceanographic research ship E/V Nautilus (St Vincent and the Grenadines)

Ship's website: http://www.nautiluslive.org

Last reported at 2019-Jun-18 23:00 UTC. Time now 2019-Jun-19 14:46 UTC.
Position N 27°24' W 144°00'.

Length 64 m; draft 5 m.

Type: Other ship. MMSI: 376404000.

Wind from 060 at 15 knots

Barometer 1024.0 mb
Air temperature 28.0 ° C
Visibility: greater than 10.8 NM
Water temperature 22.0 ° C

Date/timePositionNaut miles runAvg speedWind from/ knotsBaromVisibWave heightAir tempDewpointWater temp
2019-Jun-18 23:00N 27°24' W 144°00'29711.9 060 / 151024.010.8 28.0 22.0
2019-Jun-17 22:00N 30°00' W 139°12'136 2.8 060 / 171026.0 5.4 24.0 20.0
2019-Jun-15 22:00N 30°42' W 136°42'32 1.3 280 / 71024.0 24.0 19.0
2019-Jun-14 22:00N 31°12' W 136°30'20112.5 300 / 71022.0 -5.6 19.0
2019-Jun-14 06:00N 32°54' W 133°06'59 7.3 270 / 61020.0 5.4 16.0 18.0
2019-Jun-13 22:00N 33°24' W 132°06'20612.9 330 / 81021.0 5.4 22.0 17.0
2019-Jun-13 06:00N 35°06' W 128°30'28 9.9 310 / 151017.9 5.4 14.0 14.0
2019-Jun-13 03:11N 35°22' W 128°02'512.3
2019-Jun-13 02:47N 35°24' W 127°57'1912.2
2019-Jun-13 01:15N 35°34' W 127°37'312.2
2019-Jun-13 01:00N 35°35' W 127°34'1012.2
2019-Jun-13 00:09N 35°41' W 127°23'912.3
2019-Jun-12 23:25N 35°45' W 127°13'912.3
2019-Jun-12 22:41N 35°50' W 127°04'711.5
2019-Jun-12 22:05N 35°53' W 126°56'212.2
2019-Jun-12 21:55N 35°54' W 126°54'512.1
2019-Jun-12 21:30N 35°56' W 126°48'612.5
2019-Jun-12 21:00N 36°00' W 126°42'211.0 290 / 201017.9 5.4 18.0 16.0
2019-Jun-12 20:49N 36°00' W 126°40'411.9
2019-Jun-12 20:30N 36°02' W 126°36'611.9
2019-Jun-12 20:00N 36°05' W 126°29'7311.8
2019-Jun-12 13:49N 36°42' W 125°11'1311.7
2019-Jun-12 12:44N 36°46' W 124°56'311.9
2019-Jun-12 12:29N 36°47' W 124°52'612.0
2019-Jun-12 11:58N 36°48' W 124°45'612.0
2019-Jun-12 11:30N 36°49' W 124°38'611.8
2019-Jun-12 11:00N 36°52' W 124°31'612.0
2019-Jun-12 10:30N 36°55' W 124°25'612.3
2019-Jun-12 10:00N 36°58' W 124°18'612.5
2019-Jun-12 09:30N 37°01' W 124°12'612.8
2019-Jun-12 09:00N 37°05' W 124°05'612.5
2019-Jun-12 08:30N 37°08' W 123°58'612.5
2019-Jun-12 08:00N 37°11' W 123°51'612.8
2019-Jun-12 07:30N 37°14' W 123°45'612.1
2019-Jun-12 07:00N 37°17' W 123°38'612.0
2019-Jun-12 06:30N 37°21' W 123°32'611.8
2019-Jun-12 06:01N 37°24' W 123°25'612.0
2019-Jun-12 05:30N 37°27' W 123°19'611.7
2019-Jun-12 05:01N 37°30' W 123°12'026.7
2019-Jun-12 05:00N 37°30' W 123°12'510.9 300 / 151013.910.8 15.0 14.0
2019-Jun-12 04:31N 37°33' W 123°06'611.6
2019-Jun-12 04:01N 37°36' W 123°00'611.6
2019-Jun-12 03:31N 37°39' W 122°54'611.4
2019-Jun-12 03:01N 37°43' W 122°48'611.6
2019-Jun-12 02:31N 37°45' W 122°42'1110.5
2019-Jun-12 01:31N 37°49' W 122°29'4 8.8
2019-Jun-12 01:00N 37°51' W 122°25'4 6.8
2019-Jun-12 00:29N 37°54' W 122°26'0 0.0
2019-Jun-11 23:59N 37°54' W 122°26'0 0.1
2019-Jun-11 23:26N 37°54' W 122°26'0 0.1
2019-Jun-11 22:59N 37°54' W 122°26'0 0.0
2019-Jun-11 22:29N 37°54' W 122°26'0 0.4
2019-Jun-11 21:59N 37°55' W 122°26'0 0.4
2019-Jun-11 21:26N 37°55' W 122°26'1 1.4
2019-Jun-11 20:56N 37°54' W 122°26'1 1.3
2019-Jun-11 20:29N 37°54' W 122°26'1 1.3
2019-Jun-11 19:59N 37°54' W 122°26'0 0.3
2019-Jun-11 19:29N 37°54' W 122°26'1 1.6
2019-Jun-11 18:59N 37°54' W 122°26'1 1.0
2019-Jun-11 18:26N 37°54' W 122°26'0 0.4
2019-Jun-11 17:53N 37°54' W 122°26'2 4.4
2019-Jun-11 17:30N 37°56' W 122°27'612.4
2019-Jun-11 17:00N 38°01' W 122°23'611.9
2019-Jun-11 16:30N 38°04' W 122°16'2 3.9
2019-Jun-11 15:58N 38°06' W 122°16'0 0.0
2019-Jun-11 15:28N 38°06' W 122°16'0 0.0
2019-Jun-11 14:58N 38°06' W 122°16'0 0.0
2019-Jun-11 14:22N 38°06' W 122°16'0 0.0
2019-Jun-11 13:58N 38°06' W 122°16'0 0.0
2019-Jun-11 13:28N 38°06' W 122°16'0 0.0
2019-Jun-11 12:46N 38°06' W 122°16'0 0.0
2019-Jun-11 12:22N 38°06' W 122°16'0 0.0
2019-Jun-11 11:52N 38°06' W 122°16'0 0.0
2019-Jun-11 11:28N 38°06' W 122°16'0 0.0
2019-Jun-11 10:57N 38°06' W 122°16'0 0.0
2019-Jun-11 10:27N 38°06' W 122°16'0 0.0
2019-Jun-11 09:57N 38°06' W 122°16'0 0.0
2019-Jun-11 09:27N 38°06' W 122°16'0 0.0
2019-Jun-11 08:51N 38°06' W 122°16'0 0.0
2019-Jun-11 07:45N 38°06' W 122°16'0 0.0
2019-Jun-11 07:27N 38°06' W 122°16'0 0.0
2019-Jun-11 06:39N 38°06' W 122°16'0 0.0
2019-Jun-11 06:21N 38°06' W 122°16'0 0.0
2019-Jun-11 05:51N 38°06' W 122°16'0 0.0
2019-Jun-11 05:27N 38°06' W 122°16'0 0.0
2019-Jun-11 04:27N 38°06' W 122°16'0 0.0
2019-Jun-11 03:57N 38°06' W 122°16'0 0.0
2019-Jun-11 03:21N 38°06' W 122°16'0 0.0
2019-Jun-11 02:57N 38°06' W 122°16'0 0.0
2019-Jun-11 02:27N 38°06' W 122°16'0 0.0
2019-Jun-10 16:03N 38°06' W 122°16'0 0.0
2019-Jun-10 15:09N 38°06' W 122°16'0 0.0
2019-Jun-10 14:33N 38°06' W 122°16'0 0.0
2019-Jun-10 14:15N 38°06' W 122°16'0 0.0
2019-Jun-10 13:57N 38°06' W 122°16'0 0.0
2019-Jun-10 13:21N 38°06' W 122°16'0 0.0
2019-Jun-10 12:45N 38°06' W 122°16'0 0.0
2019-Jun-10 12:21N 38°06' W 122°16'0 0.0
2019-Jun-10 11:57N 38°06' W 122°16'0 0.0
2019-Jun-10 11:27N 38°06' W 122°16'0 0.0
2019-Jun-10 10:57N 38°06' W 122°16'0 0.0
2019-Jun-10 10:21N 38°06' W 122°16'0 0.0
2019-Jun-10 09:57N 38°06' W 122°16'0 0.0
2019-Jun-10 09:27N 38°06' W 122°16'0 0.0
2019-Jun-10 08:21N 38°06' W 122°16'0 0.0
2019-Jun-10 07:57N 38°06' W 122°16'0 0.0
2019-Jun-10 04:51N 38°06' W 122°16'0 0.0
2019-Jun-09 19:07N 38°06' W 122°16'0 2.3
2019-Jun-09 18:59N 38°06' W 122°16'2 4.4
2019-Jun-09 18:30N 38°04' W 122°16'4 8.6
2019-Jun-09 18:00N 38°02' W 122°21'5 9.0
2019-Jun-09 17:30N 37°59' W 122°26'4 8.5
2019-Jun-09 17:00N 37°55' W 122°27'5 9.1
2019-Jun-09 16:30N 37°51' W 122°24'4 7.8
2019-Jun-09 16:00N 37°49' W 122°29'4 8.5
2019-Jun-09 15:30N 37°47' W 122°34'510.6
2019-Jun-09 15:00N 37°46' W 122°40'510.2
2019-Jun-09 14:30N 37°46' W 122°47'5 9.9
2019-Jun-09 14:00N 37°49' W 122°52'611.4
2019-Jun-09 13:30N 37°51' W 122°58'611.5
2019-Jun-09 13:00N 37°54' W 123°05'510.6
2019-Jun-09 12:30N 37°57' W 123°11'3 5.4
2019-Jun-09 12:00N 37°59' W 123°13'2 4.4
2019-Jun-09 11:30N 38°01' W 123°15'2 4.3
2019-Jun-09 11:00N 38°02' W 123°17'2 4.5
2019-Jun-09 10:30N 38°04' W 123°18'2 3.9
2019-Jun-09 10:00N 38°06' W 123°20'2 3.8
2019-Jun-09 09:30N 38°07' W 123°21'2 4.1
2019-Jun-09 09:00N 38°09' W 123°23'2 4.3
2019-Jun-09 08:30N 38°10' W 123°25'2 4.6
2019-Jun-09 08:00N 38°12' W 123°26'2 4.3
2019-Jun-09 07:30N 38°14' W 123°28'3 6.8
2019-Jun-09 07:00N 38°17' W 123°30'4 8.7
2019-Jun-09 06:30N 38°21' W 123°32'4 8.9
2019-Jun-09 06:00N 38°25' W 123°35'5 9.6
2019-Jun-09 05:30N 38°29' W 123°39'5 9.9
2019-Jun-09 05:00N 38°33' W 123°42'1110.7
2019-Jun-09 04:00N 38°41' W 123°51'612.3
2019-Jun-09 03:30N 38°46' W 123°55'8212.6
2019-Jun-08 21:00N 40°00' W 124°42'191 6.8 360 / 271023.0 5.4 14.0 12.0
2019-Jun-07 17:00N 42°48' W 126°42'0 0.0 330 / 201026.010.8 13.0 12.0
2019-Jun-06 21:00N 42°48' W 126°42'   300 / 201022.0 5.4 16.0 13.0

Dump ship's entire track history